Time;durP1;ratioP1;P1;durP2;ratioP2;P2;SDS_P1;SDS_P2;PMS_P1;PMS_P2;Temp;Humidity;BMP_temperature;BMP_pressure;BME280_temperature;BME280_humidity;BME280_pressure;Samples;Min_cycle;Max_cycle;Signal;HPM_P1;HPM_P2
2022/09/29 00:01:37;;;;;;;0.22;0.22;;;7.80;99.90;;;;;;5049931;28;20273;-65
2022/09/29 00:04:03;;;;;;;0.00;0.00;;;7.70;99.90;;;;;;5050781;28;20595;-65
2022/09/29 00:06:28;;;;;;;0.00;0.00;;;7.70;99.90;;;;;;5045564;28;20181;-65
2022/09/29 00:08:54;;;;;;;0.00;0.00;;;7.70;99.90;;;;;;5042053;28;20250;-65
2022/09/29 00:11:19;;;;;;;0.00;0.00;;;7.70;99.90;;;;;;5047578;28;20181;-65
2022/09/29 00:13:46;;;;;;;0.05;0.05;;;7.70;99.90;;;;;;5042403;28;20652;-65
2022/09/29 00:16:12;;;;;;;0.22;0.08;;;7.60;99.90;;;;;;5045354;28;20177;-65
2022/09/29 00:18:38;;;;;;;0.05;0.05;;;7.60;99.90;;;;;;5048215;28;20678;-65
2022/09/29 00:21:09;;;;;;;0.00;0.00;;;7.60;99.90;;;;;;5035405;28;20351;-64
2022/09/29 00:23:35;;;;;;;0.22;0.22;;;7.60;99.90;;;;;;5047250;28;20177;-65
2022/09/29 00:26:18;;;;;;;0.40;0.40;;;7.50;99.90;;;;;;5051031;28;20604;-65
2022/09/29 00:28:55;;;;;;;0.22;0.22;;;7.50;99.90;;;;;;5039521;28;20182;-65
2022/09/29 00:31:22;;;;;;;0.45;0.45;;;7.50;99.90;;;;;;5044146;28;20182;-65
2022/09/29 00:33:47;;;;;;;0.10;0.10;;;7.50;99.90;;;;;;5053763;28;20251;-65
2022/09/29 00:36:15;;;;;;;0.35;0.17;;;7.50;99.90;;;;;;5044464;28;20177;-65
2022/09/29 00:38:43;;;;;;;0.90;0.57;;;7.50;99.90;;;;;;5051233;28;20184;-64
2022/09/29 00:41:23;;;;;;;0.00;0.00;;;7.50;99.90;;;;;;5039562;28;20221;-64
2022/09/29 00:44:03;;;;;;;2.72;0.70;;;7.50;99.90;;;;;;5041782;28;20186;-65
2022/09/29 00:46:51;;;;;;;0.38;0.38;;;7.50;99.90;;;;;;5041680;28;20209;-65
2022/09/29 00:49:35;;;;;;;0.45;0.45;;;7.50;99.90;;;;;;5044050;28;20203;-64
2022/09/29 00:52:04;;;;;;;0.00;0.00;;;7.50;99.90;;;;;;5035607;28;20252;-65
2022/09/29 00:54:37;;;;;;;0.13;0.13;;;7.40;99.90;;;;;;5052625;28;20196;-65
2022/09/29 00:57:04;;;;;;;0.57;0.52;;;7.40;99.90;;;;;;5046809;28;20170;-65
2022/09/29 00:59:51;;;;;;;0.00;0.00;;;7.40;99.90;;;;;;5048418;28;20183;-64
2022/09/29 01:02:18;;;;;;;1.25;0.95;;;7.40;99.90;;;;;;5049353;28;20212;-63
2022/09/29 01:04:46;;;;;;;0.40;0.40;;;7.40;99.90;;;;;;5046110;28;20235;-64
2022/09/29 01:07:12;;;;;;;0.00;0.00;;;7.40;99.90;;;;;;5040764;28;20193;-64
2022/09/29 01:09:40;;;;;;;0.00;0.00;;;7.30;99.90;;;;;;5037949;28;20179;-64
2022/09/29 01:12:06;;;;;;;0.00;0.00;;;7.30;99.90;;;;;;5028222;28;20547;-64
2022/09/29 01:14:33;;;;;;;0.00;0.00;;;7.30;99.90;;;;;;5044251;28;20169;-64
2022/09/29 01:16:59;;;;;;;0.10;0.10;;;7.30;99.90;;;;;;5045294;28;20264;-64
2022/09/29 01:19:30;;;;;;;0.35;0.10;;;7.30;99.90;;;;;;5052609;28;20272;-64
2022/09/29 01:22:29;;;;;;;0.00;0.00;;;7.30;99.90;;;;;;5034514;28;20297;-64
2022/09/29 01:24:57;;;;;;;0.00;0.00;;;7.30;99.90;;;;;;5034558;28;20544;-65
2022/09/29 01:27:50;;;;;;;0.05;0.05;;;7.30;99.90;;;;;;5032361;28;20723;-64
2022/09/29 01:30:16;;;;;;;0.10;0.10;;;7.40;99.90;;;;;;5028471;28;20190;-64
2022/09/29 01:32:44;;;;;;;0.47;0.43;;;7.40;99.90;;;;;;5037752;28;20229;-65
2022/09/29 01:35:40;;;;;;;0.10;0.10;;;7.40;99.90;;;;;;5033813;28;20201;-64
2022/09/29 01:38:26;;;;;;;0.00;0.00;;;7.40;99.90;;;;;;5038326;28;20179;-64
2022/09/29 01:41:19;;;;;;;0.10;0.10;;;7.40;99.90;;;;;;5041333;28;20202;-64
2022/09/29 01:43:54;;;;;;;0.35;0.35;;;7.40;99.90;;;;;;5042223;28;20188;-64
2022/09/29 01:46:41;;;;;;;0.10;0.10;;;7.50;99.90;;;;;;5032257;28;20212;-64
2022/09/29 01:49:10;;;;;;;0.00;0.00;;;7.50;99.90;;;;;;5045632;28;20251;-63
2022/09/29 01:52:10;;;;;;;0.00;0.00;;;7.50;99.90;;;;;;5034684;28;20197;-64
2022/09/29 01:55:08;;;;;;;0.00;0.00;;;7.60;99.90;;;;;;5006916;28;20203;-64
2022/09/29 01:57:49;;;;;;;0.00;0.00;;;7.60;99.90;;;;;;5044311;28;20263;-64
2022/09/29 02:00:17;;;;;;;0.00;0.00;;;7.60;99.90;;;;;;5043771;28;20178;-64
2022/09/29 02:02:55;;;;;;;0.03;0.03;;;7.60;99.90;;;;;;5030985;28;20217;-64
2022/09/29 02:05:36;;;;;;;0.00;0.00;;;7.60;99.90;;;;;;5043665;28;20540;-64
2022/09/29 02:08:11;;;;;;;0.03;0.03;;;7.70;99.90;;;;;;5043828;28;20188;-64
2022/09/29 02:10:51;;;;;;;0.00;0.00;;;7.70;99.90;;;;;;5041180;28;20477;-64
2022/09/29 02:13:18;;;;;;;0.00;0.00;;;7.70;99.90;;;;;;5044791;28;20277;-64
2022/09/29 02:15:47;;;;;;;0.00;0.00;;;7.70;99.90;;;;;;5049099;28;20702;-64
2022/09/29 02:18:21;;;;;;;0.00;0.00;;;7.70;99.90;;;;;;5044881;28;20189;-65
2022/09/29 02:20:48;;;;;;;0.00;0.00;;;7.70;99.90;;;;;;5040488;28;20268;-64
2022/09/29 02:23:14;;;;;;;0.15;0.15;;;7.70;99.90;;;;;;5044516;28;20283;-64
2022/09/29 02:25:40;;;;;;;0.00;0.00;;;7.80;99.90;;;;;;5035969;28;20700;-64
2022/09/29 02:28:07;;;;;;;0.13;0.13;;;7.80;99.90;;;;;;5045938;28;20174;-63
2022/09/29 02:30:33;;;;;;;0.00;0.00;;;7.80;99.90;;;;;;5038777;28;20240;-64
2022/09/29 02:32:59;;;;;;;0.10;0.10;;;7.80;99.90;;;;;;5033582;28;20233;-64
2022/09/29 02:35:33;;;;;;;0.20;0.20;;;7.80;99.90;;;;;;5032964;28;20182;-64
2022/09/29 02:38:14;;;;;;;0.00;0.00;;;7.90;99.90;;;;;;5039953;28;20189;-64
2022/09/29 02:40:56;;;;;;;0.00;0.00;;;7.90;99.90;;;;;;5042820;28;20181;-64
2022/09/29 02:43:39;;;;;;;0.00;0.00;;;7.90;99.90;;;;;;5040621;28;20228;-65
2022/09/29 02:46:28;;;;;;;0.00;0.00;;;7.90;99.90;;;;;;5046197;28;20253;-64
2022/09/29 02:49:14;;;;;;;0.00;0.00;;;7.90;99.90;;;;;;5050688;28;20181;-65
2022/09/29 02:51:57;;;;;;;0.00;0.00;;;7.90;99.90;;;;;;5043302;28;20210;-65
2022/09/29 02:54:48;;;;;;;0.00;0.00;;;8.00;99.90;;;;;;5038629;28;20760;-65
2022/09/29 02:57:32;;;;;;;0.00;0.00;;;8.00;99.90;;;;;;5042816;28;20519;-64
2022/09/29 03:00:09;;;;;;;0.20;0.20;;;8.00;99.90;;;;;;5046057;28;20178;-65
2022/09/29 03:02:36;;;;;;;0.10;0.10;;;8.00;99.90;;;;;;5046194;28;20700;-65
2022/09/29 03:05:09;;;;;;;1.17;0.85;;;7.90;99.90;;;;;;5036983;28;20192;-65
2022/09/29 03:07:36;;;;;;;0.38;0.38;;;8.00;99.90;;;;;;5039801;28;20744;-64
2022/09/29 03:10:01;;;;;;;0.38;0.25;;;8.00;99.90;;;;;;5045679;28;20242;-64
2022/09/29 03:12:27;;;;;;;0.00;0.00;;;8.00;99.90;;;;;;5037158;28;20209;-64
2022/09/29 03:14:52;;;;;;;0.90;0.40;;;7.90;99.90;;;;;;5036942;28;20619;-64
2022/09/29 03:17:18;;;;;;;0.10;0.10;;;7.90;99.90;;;;;;5043896;28;20675;-65
2022/09/29 03:19:43;;;;;;;0.00;0.00;;;7.90;99.90;;;;;;5041869;28;20196;-64
2022/09/29 03:22:09;;;;;;;0.08;0.08;;;7.90;99.90;;;;;;5042097;28;20174;-65
2022/09/29 03:24:35;;;;;;;0.00;0.00;;;7.80;99.90;;;;;;5044316;28;20207;-64
2022/09/29 03:27:00;;;;;;;0.00;0.00;;;7.90;99.90;;;;;;5038799;28;20182;-64
2022/09/29 03:29:26;;;;;;;0.00;0.00;;;7.80;99.90;;;;;;5036018;28;20190;-64
2022/09/29 03:31:51;;;;;;;0.05;0.05;;;7.80;99.90;;;;;;5043926;28;20210;-65
2022/09/29 03:34:17;;;;;;;0.00;0.00;;;7.80;99.90;;;;;;5035560;28;20659;-64
2022/09/29 03:36:42;;;;;;;0.00;0.00;;;7.80;99.90;;;;;;5040469;28;20205;-64
2022/09/29 03:39:08;;;;;;;0.32;0.30;;;7.80;99.90;;;;;;5039708;28;20277;-65
2022/09/29 03:41:33;;;;;;;0.00;0.00;;;7.80;99.90;;;;;;5040099;28;20197;-64
2022/09/29 03:43:59;;;;;;;0.00;0.00;;;7.80;99.90;;;;;;5035290;28;20230;-62
2022/09/29 03:46:25;;;;;;;0.00;0.00;;;7.80;99.90;;;;;;5039934;28;20189;-64
2022/09/29 03:48:50;;;;;;;0.00;0.00;;;7.80;99.90;;;;;;5030706;28;20178;-64
2022/09/29 03:51:16;;;;;;;0.05;0.05;;;7.80;99.90;;;;;;5033508;28;20178;-64
2022/09/29 03:53:41;;;;;;;0.00;0.00;;;7.70;99.90;;;;;;5040354;28;20213;-63
2022/09/29 03:56:07;;;;;;;0.03;0.03;;;7.80;99.90;;;;;;5041005;28;20203;-63
2022/09/29 03:58:33;;;;;;;0.65;0.40;;;7.70;99.90;;;;;;5044126;28;20196;-64
2022/09/29 04:01:00;;;;;;;0.00;0.00;;;7.70;99.90;;;;;;5041494;28;20621;-63
2022/09/29 04:03:25;;;;;;;0.10;0.10;;;7.70;99.90;;;;;;5014307;28;1051164;-63
2022/09/29 04:05:51;;;;;;;0.00;0.00;;;7.70;99.90;;;;;;5035395;28;20205;-64
2022/09/29 04:08:16;;;;;;;0.00;0.00;;;7.70;99.90;;;;;;5044280;28;20178;-65
2022/09/29 04:10:42;;;;;;;0.00;0.00;;;7.60;99.90;;;;;;5039828;28;20528;-65
2022/09/29 04:13:08;;;;;;;0.00;0.00;;;7.60;99.90;;;;;;5047838;28;20279;-67
2022/09/29 04:15:34;;;;;;;0.25;0.10;;;7.60;99.90;;;;;;5046012;28;20227;-66
2022/09/29 04:18:00;;;;;;;0.03;0.03;;;7.60;99.90;;;;;;5031492;28;20194;-64
2022/09/29 04:20:26;;;;;;;0.00;0.00;;;7.60;99.90;;;;;;5041837;28;20679;-66
2022/09/29 04:22:51;;;;;;;0.00;0.00;;;7.60;99.90;;;;;;5049917;28;20181;-65
2022/09/29 04:25:17;;;;;;;0.05;0.05;;;7.60;99.90;;;;;;5046751;28;20178;-67
2022/09/29 04:27:43;;;;;;;0.00;0.00;;;7.60;99.90;;;;;;5051350;28;20170;-65
2022/09/29 04:30:09;;;;;;;0.00;0.00;;;7.60;99.90;;;;;;5050982;28;20265;-66
2022/09/29 04:32:35;;;;;;;0.00;0.00;;;7.60;99.90;;;;;;5051047;28;20240;-65
2022/09/29 04:35:00;;;;;;;0.00;0.00;;;7.60;99.90;;;;;;5051182;28;20536;-66
2022/09/29 04:37:26;;;;;;;0.20;0.20;;;7.60;99.90;;;;;;5051033;28;20644;-65
2022/09/29 04:39:53;;;;;;;0.00;0.00;;;7.60;99.90;;;;;;5047621;28;20658;-64
2022/09/29 04:42:19;;;;;;;0.03;0.03;;;7.60;99.90;;;;;;5031041;28;20588;-63
2022/09/29 04:44:45;;;;;;;0.10;0.10;;;7.60;99.90;;;;;;5032300;28;20178;-64
2022/09/29 04:47:10;;;;;;;0.08;0.08;;;7.60;99.90;;;;;;5031440;28;20228;-63
2022/09/29 04:49:36;;;;;;;0.08;0.08;;;7.60;99.90;;;;;;5033461;28;20174;-63
2022/09/29 04:52:02;;;;;;;0.13;0.13;;;7.60;99.90;;;;;;5050687;28;20249;-64
2022/09/29 04:54:34;;;;;;;0.08;0.08;;;7.60;99.90;;;;;;5050921;28;20169;-65
2022/09/29 04:57:00;;;;;;;0.10;0.10;;;7.60;99.90;;;;;;5051008;28;20246;-65
2022/09/29 04:59:27;;;;;;;0.40;0.40;;;7.60;99.90;;;;;;5051037;28;20173;-65
2022/09/29 05:01:52;;;;;;;0.10;0.10;;;7.50;99.90;;;;;;5051128;28;20235;-65
2022/09/29 05:04:18;;;;;;;0.00;0.00;;;7.50;99.90;;;;;;5054259;28;20225;-65
2022/09/29 05:06:44;;;;;;;0.00;0.00;;;7.50;99.90;;;;;;5054574;28;20173;-66
2022/09/29 05:09:09;;;;;;;0.10;0.10;;;7.50;99.90;;;;;;5054274;28;20213;-65
2022/09/29 05:11:35;;;;;;;0.10;0.10;;;7.50;99.90;;;;;;5053311;28;20188;-66
2022/09/29 05:14:01;;;;;;;0.00;0.00;;;7.50;99.90;;;;;;5054375;28;20531;-65
2022/09/29 05:16:26;;;;;;;0.15;0.15;;;7.50;99.90;;;;;;5054531;28;20169;-65
2022/09/29 05:18:52;;;;;;;0.88;0.22;;;7.40;99.90;;;;;;5054514;28;20521;-63
2022/09/29 05:21:17;;;;;;;0.00;0.00;;;7.40;99.90;;;;;;5054376;28;20235;-63
2022/09/29 05:23:43;;;;;;;0.00;0.00;;;7.40;99.90;;;;;;5054562;28;20209;-63
2022/09/29 05:26:10;;;;;;;0.00;0.00;;;7.40;99.90;;;;;;5054150;28;20228;-63
2022/09/29 05:28:38;;;;;;;0.10;0.10;;;7.40;99.90;;;;;;5054251;28;20177;-64
2022/09/29 05:31:07;;;;;;;0.00;0.00;;;7.40;99.90;;;;;;5054147;28;20196;-64
2022/09/29 05:33:34;;;;;;;0.17;0.17;;;7.40;99.90;;;;;;5054103;28;20270;-64
2022/09/29 05:36:02;;;;;;;0.00;0.00;;;7.40;99.90;;;;;;5054022;28;20169;-65
2022/09/29 05:38:28;;;;;;;0.10;0.10;;;7.40;99.90;;;;;;5054013;28;20550;-65
2022/09/29 05:40:54;;;;;;;0.00;0.00;;;7.40;99.90;;;;;;5042169;28;20657;-65
2022/09/29 05:43:20;;;;;;;0.17;0.17;;;7.50;99.90;;;;;;5033895;28;20178;-65
2022/09/29 05:45:45;;;;;;;0.00;0.00;;;7.50;99.90;;;;;;5034081;28;20198;-65
2022/09/29 05:48:11;;;;;;;0.00;0.00;;;7.50;99.90;;;;;;5033874;28;20174;-64
2022/09/29 05:50:43;;;;;;;0.03;0.03;;;7.50;99.90;;;;;;5034018;28;20529;-65
2022/09/29 05:53:10;;;;;;;0.08;0.05;;;7.50;99.90;;;;;;5033769;28;20213;-65
2022/09/29 05:55:36;;;;;;;0.00;0.00;;;7.60;99.90;;;;;;5033934;28;20178;-65
2022/09/29 05:58:06;;;;;;;0.00;0.00;;;7.60;99.90;;;;;;5033957;28;20182;-65
2022/09/29 06:00:32;;;;;;;0.00;0.00;;;7.70;99.90;;;;;;5033861;28;20174;-64
2022/09/29 06:03:01;;;;;;;0.05;0.05;;;7.70;99.90;;;;;;5033561;28;20228;-65
2022/09/29 06:05:28;;;;;;;0.20;0.20;;;7.70;99.90;;;;;;5033601;28;20536;-64
2022/09/29 06:07:54;;;;;;;0.00;0.00;;;7.80;99.90;;;;;;5033708;28;20401;-65
2022/09/29 06:10:20;;;;;;;0.00;0.00;;;7.90;99.90;;;;;;5033567;28;20182;-65
2022/09/29 06:12:45;;;;;;;0.00;0.00;;;7.90;99.90;;;;;;5033538;28;20220;-65
2022/09/29 06:15:11;;;;;;;0.00;0.00;;;8.00;99.90;;;;;;5032349;28;20284;-65
2022/09/29 06:17:37;;;;;;;0.00;0.00;;;8.00;99.90;;;;;;5033512;28;20186;-65
2022/09/29 06:20:05;;;;;;;0.03;0.03;;;8.10;99.90;;;;;;5033439;28;20626;-65
2022/09/29 06:22:31;;;;;;;0.00;0.00;;;8.30;99.90;;;;;;5033309;28;20580;-65
2022/09/29 06:24:57;;;;;;;0.00;0.00;;;8.40;99.90;;;;;;5033330;28;20174;-65
2022/09/29 06:27:22;;;;;;;1.00;1.00;;;8.50;99.90;;;;;;5033110;28;20522;-65
2022/09/29 06:29:48;;;;;;;0.00;0.00;;;8.70;99.90;;;;;;5033446;28;20170;-65
2022/09/29 06:32:14;;;;;;;0.00;0.00;;;8.80;99.90;;;;;;5033064;28;20213;-65
2022/09/29 06:37:33;;;;;;;0.00;0.00;;;9.00;99.90;;;;;;5033253;28;20178;-65
2022/09/29 06:37:34;;;;;;;0.00;0.00;;;9.10;99.90;;;;;;5032970;28;20182;-65
2022/09/29 06:40:01;;;;;;;0.10;0.10;;;9.30;99.90;;;;;;5033004;28;20186;-65
2022/09/29 06:42:26;;;;;;;0.25;0.22;;;9.40;99.90;;;;;;5032877;28;20232;-65
2022/09/29 06:44:53;;;;;;;0.00;0.00;;;9.50;99.90;;;;;;5032847;28;20174;-65
2022/09/29 06:47:19;;;;;;;0.05;0.05;;;9.60;99.90;;;;;;5032912;28;20186;-65
2022/09/29 06:49:44;;;;;;;0.10;0.10;;;9.70;99.90;;;;;;5032960;28;20715;-65
2022/09/29 06:52:10;;;;;;;0.00;0.00;;;9.90;99.90;;;;;;5032549;28;20205;-65
2022/09/29 06:54:35;;;;;;;0.00;0.00;;;10.10;99.90;;;;;;5032710;28;20181;-65
2022/09/29 06:57:01;;;;;;;0.30;0.30;;;10.30;99.90;;;;;;5032758;28;20201;-66
2022/09/29 06:59:26;;;;;;;0.00;0.00;;;10.70;99.90;;;;;;5032612;28;20743;-65
2022/09/29 07:01:52;;;;;;;0.00;0.00;;;11.00;99.90;;;;;;5032521;28;20179;-65
2022/09/29 07:04:19;;;;;;;0.08;0.08;;;11.40;99.90;;;;;;5032330;28;20233;-65
2022/09/29 07:06:45;;;;;;;0.00;0.00;;;11.90;99.90;;;;;;5032599;28;20666;-66
2022/09/29 07:09:14;;;;;;;0.00;0.00;;;12.30;99.90;;;;;;5032519;28;20202;-65
2022/09/29 07:11:45;;;;;;;0.32;0.20;;;12.40;99.90;;;;;;5032491;28;20182;-65
2022/09/29 07:14:14;;;;;;;0.55;0.55;;;12.60;99.90;;;;;;5032272;28;20316;-65
2022/09/29 07:16:39;;;;;;;0.00;0.00;;;12.80;99.90;;;;;;5032520;28;20257;-65
2022/09/29 07:19:05;;;;;;;0.00;0.00;;;13.10;99.90;;;;;;5032393;28;20305;-65
2022/09/29 07:21:30;;;;;;;0.00;0.00;;;13.30;99.90;;;;;;5032217;28;20261;-65
2022/09/29 07:23:56;;;;;;;0.00;0.00;;;13.60;99.90;;;;;;5032415;28;20167;-66
2022/09/29 07:26:21;;;;;;;0.00;0.00;;;13.70;99.90;;;;;;5031992;28;20178;-65
2022/09/29 07:28:47;;;;;;;0.00;0.00;;;13.70;99.90;;;;;;5032220;28;20284;-66
2022/09/29 07:31:16;;;;;;;0.17;0.17;;;13.70;99.90;;;;;;5032060;28;20205;-65
2022/09/29 07:33:42;;;;;;;0.00;0.00;;;13.60;99.90;;;;;;5032182;28;20225;-65
2022/09/29 07:36:08;;;;;;;0.00;0.00;;;13.50;99.90;;;;;;5031826;28;20661;-65
2022/09/29 07:38:34;;;;;;;0.25;0.25;;;13.40;99.90;;;;;;5032196;28;20221;-65
2022/09/29 07:41:03;;;;;;;0.10;0.10;;;13.30;99.90;;;;;;5032028;28;20228;-66
2022/09/29 07:43:30;;;;;;;0.10;0.10;;;13.30;99.90;;;;;;5031791;28;20190;-66
2022/09/29 07:45:56;;;;;;;0.00;0.00;;;13.20;99.90;;;;;;5032131;28;20181;-65
2022/09/29 07:48:21;;;;;;;0.10;0.10;;;13.20;99.90;;;;;;5031981;28;20178;-66
2022/09/29 07:50:47;;;;;;;0.00;0.00;;;13.20;99.90;;;;;;5031947;28;20667;-66
2022/09/29 07:53:13;;;;;;;0.00;0.00;;;13.30;99.90;;;;;;5031893;28;20209;-65
2022/09/29 07:55:39;;;;;;;0.80;0.80;;;13.20;99.90;;;;;;5032017;28;20338;-63
2022/09/29 07:58:05;;;;;;;0.00;0.00;;;13.20;99.90;;;;;;5031985;28;20272;-64
2022/09/29 08:00:31;;;;;;;0.10;0.10;;;13.20;99.90;;;;;;5031620;28;20261;-66
2022/09/29 08:03:06;;;;;;;0.00;0.00;;;13.20;99.90;;;;;;5031696;28;20979;-66
2022/09/29 08:05:32;;;;;;;0.00;0.00;;;13.70;99.90;;;;;;5031674;28;20178;-66
2022/09/29 08:08:03;;;;;;;0.00;0.00;;;14.40;99.90;;;;;;5031794;28;20715;-66
2022/09/29 08:10:29;;;;;;;0.00;0.00;;;14.90;99.90;;;;;;5031636;28;20182;-66
2022/09/29 08:12:55;;;;;;;0.00;0.00;;;15.00;99.90;;;;;;5030550;28;20217;-66
2022/09/29 08:15:21;;;;;;;0.05;0.05;;;14.90;99.90;;;;;;5031759;28;20219;-66
2022/09/29 08:17:47;;;;;;;0.00;0.00;;;14.60;99.90;;;;;;5031794;28;20187;-66
2022/09/29 08:20:13;;;;;;;0.00;0.00;;;14.50;99.90;;;;;;5031647;28;20697;-66
2022/09/29 08:22:38;;;;;;;0.10;0.10;;;14.70;99.90;;;;;;5031748;28;20182;-66
2022/09/29 08:25:04;;;;;;;0.00;0.00;;;14.80;99.90;;;;;;5031788;28;20178;-66
2022/09/29 08:27:29;;;;;;;0.17;0.00;;;14.80;99.90;;;;;;5031452;28;20586;-66
2022/09/29 08:29:56;;;;;;;0.00;0.00;;;14.80;99.90;;;;;;5031687;28;20171;-66
2022/09/29 08:32:22;;;;;;;0.00;0.00;;;14.80;99.90;;;;;;5031326;28;20213;-66
2022/09/29 08:34:47;;;;;;;0.00;0.00;;;15.10;99.90;;;;;;5031611;28;20209;-66
2022/09/29 08:37:13;;;;;;;0.20;0.20;;;15.30;99.90;;;;;;5031686;28;20178;-66
2022/09/29 08:39:39;;;;;;;0.00;0.00;;;15.40;99.90;;;;;;5035398;28;20217;-66
2022/09/29 08:42:14;;;;;;;0.00;0.00;;;15.60;99.90;;;;;;5035342;28;20178;-65
2022/09/29 08:44:57;;;;;;;0.00;0.00;;;15.80;99.90;;;;;;5035488;28;20586;-66
2022/09/29 08:47:38;;;;;;;0.00;0.00;;;15.90;99.90;;;;;;5035207;28;20178;-66
2022/09/29 08:50:12;;;;;;;0.05;0.05;;;16.00;99.90;;;;;;5035377;28;20595;-66
2022/09/29 08:52:42;;;;;;;0.00;0.00;;;16.00;99.90;;;;;;5035195;28;20196;-66
2022/09/29 08:55:17;;;;;;;0.00;0.00;;;16.20;99.90;;;;;;5034985;28;20186;-65
2022/09/29 08:57:47;;;;;;;0.00;0.00;;;16.50;99.90;;;;;;5035116;28;20178;-66
2022/09/29 09:00:16;;;;;;;0.00;0.00;;;16.80;99.90;;;;;;5035159;28;20175;-66
2022/09/29 09:03:19;;;;;;;0.00;0.00;;;17.00;98.90;;;;;;5035019;28;20300;-66
2022/09/29 09:05:57;;;;;;;0.00;0.00;;;16.90;98.20;;;;;;5034878;28;20718;-66
2022/09/29 09:08:50;;;;;;;0.00;0.00;;;16.80;98.50;;;;;;5034795;28;20268;-66
2022/09/29 09:11:54;;;;;;;0.00;0.00;;;16.70;99.00;;;;;;5034704;28;20773;-66
2022/09/29 09:14:32;;;;;;;0.00;0.00;;;17.10;99.20;;;;;;5034754;28;20194;-66
2022/09/29 09:17:21;;;;;;;0.00;0.00;;;17.80;98.60;;;;;;5034673;28;20182;-66
2022/09/29 09:20:19;;;;;;;0.00;0.00;;;18.10;97.30;;;;;;5034710;28;20588;-66
2022/09/29 09:22:56;;;;;;;0.00;0.00;;;18.20;96.70;;;;;;5034691;28;20239;-66
2022/09/29 09:25:32;;;;;;;0.00;0.00;;;18.10;95.90;;;;;;5034485;28;20184;-66
2022/09/29 09:28:29;;;;;;;0.03;0.03;;;17.80;95.80;;;;;;5034515;28;20186;-66
2022/09/29 09:31:15;;;;;;;0.00;0.00;;;17.60;95.80;;;;;;5033975;28;20236;-66
2022/09/29 09:33:51;;;;;;;0.00;0.00;;;17.40;96.10;;;;;;5034388;28;20221;-66
2022/09/29 09:36:21;;;;;;;0.00;0.00;;;17.40;96.50;;;;;;5034405;28;20209;-65
2022/09/29 09:38:53;;;;;;;0.00;0.00;;;17.50;96.50;;;;;;5034418;28;20200;-66
2022/09/29 09:41:22;;;;;;;0.00;0.00;;;17.60;96.20;;;;;;5034185;28;20563;-66
2022/09/29 09:43:55;;;;;;;0.00;0.00;;;17.60;95.80;;;;;;5034157;28;20261;-66
2022/09/29 09:46:20;;;;;;;0.00;0.00;;;17.50;95.80;;;;;;5034204;28;20217;-66
2022/09/29 09:49:01;;;;;;;0.00;0.00;;;17.50;95.50;;;;;;5034155;28;20668;-66
2022/09/29 09:51:51;;;;;;;0.10;0.10;;;17.20;95.80;;;;;;5033976;28;20492;-66
2022/09/29 09:54:40;;;;;;;0.00;0.00;;;16.70;96.10;;;;;;5034010;28;20201;-66
2022/09/29 09:57:38;;;;;;;0.00;0.00;;;16.50;96.20;;;;;;5034011;28;20182;-65
2022/09/29 10:00:05;;;;;;;0.00;0.00;;;16.60;95.30;;;;;;5034064;28;20182;-66
2022/09/29 10:02:31;;;;;;;0.00;0.00;;;16.70;96.10;;;;;;5033512;28;20313;-66
2022/09/29 10:04:56;;;;;;;0.00;0.00;;;17.00;96.20;;;;;;5033904;28;20257;-66
2022/09/29 10:07:26;;;;;;;0.00;0.00;;;17.10;95.80;;;;;;5033694;28;20261;-66
2022/09/29 10:09:52;;;;;;;0.03;0.03;;;17.20;95.40;;;;;;5033690;28;20261;-66
2022/09/29 10:12:22;;;;;;;0.00;0.00;;;17.30;95.40;;;;;;5033514;28;20214;-65
2022/09/29 10:15:04;;;;;;;0.00;0.00;;;17.40;95.40;;;;;;5033446;28;20633;-66
2022/09/29 10:17:41;;;;;;;0.00;0.00;;;17.40;94.60;;;;;;5033306;28;20182;-66
2022/09/29 10:20:08;;;;;;;0.00;0.00;;;17.50;94.10;;;;;;5033326;28;20177;-65
2022/09/29 10:22:34;;;;;;;0.00;0.00;;;17.60;94.80;;;;;;5033463;28;20182;-66
2022/09/29 10:25:17;;;;;;;0.00;0.00;;;17.60;94.30;;;;;;5033310;28;20642;-66
2022/09/29 10:27:49;;;;;;;0.00;0.00;;;17.70;93.90;;;;;;5033536;28;20273;-66
2022/09/29 10:30:33;;;;;;;0.00;0.00;;;17.80;94.40;;;;;;5033244;28;20251;-66
2022/09/29 10:33:01;;;;;;;0.00;0.00;;;17.70;93.70;;;;;;5033243;28;20300;-66
2022/09/29 10:35:40;;;;;;;0.00;0.00;;;17.70;94.40;;;;;;5033116;28;20170;-66
2022/09/29 10:38:23;;;;;;;0.00;0.00;;;17.60;94.40;;;;;;5033205;28;20251;-64
2022/09/29 10:41:04;;;;;;;0.00;0.00;;;17.50;94.20;;;;;;5033076;28;20276;-66
2022/09/29 10:43:33;;;;;;;0.00;0.00;;;17.50;94.80;;;;;;5032842;28;20248;-66
2022/09/29 10:45:58;;;;;;;0.00;0.00;;;17.50;93.50;;;;;;5032952;28;20188;-66
2022/09/29 10:48:25;;;;;;;0.00;0.00;;;17.50;93.90;;;;;;5032979;28;20281;-66
2022/09/29 10:50:58;;;;;;;0.00;0.00;;;17.70;94.50;;;;;;5032876;28;20185;-66
2022/09/29 10:53:27;;;;;;;0.00;0.00;;;17.80;93.30;;;;;;5032759;28;20704;-66
2022/09/29 10:55:55;;;;;;;0.00;0.00;;;17.90;93.70;;;;;;5032783;28;20630;-66
2022/09/29 10:58:29;;;;;;;0.00;0.00;;;18.10;93.20;;;;;;5032710;28;20645;-66
2022/09/29 11:01:13;;;;;;;0.00;0.00;;;18.30;92.10;;;;;;5032265;28;20173;-66
2022/09/29 11:03:46;;;;;;;0.00;0.00;;;18.30;92.40;;;;;;5032602;28;20225;-66
2022/09/29 11:06:13;;;;;;;0.00;0.00;;;18.20;92.60;;;;;;5031242;28;20582;-66
2022/09/29 11:09:18;;;;;;;0.00;0.00;;;18.10;92.80;;;;;;5032768;28;20182;-66
2022/09/29 11:11:46;;;;;;;0.00;0.00;;;18.00;93.10;;;;;;5010536;28;20261;-66
2022/09/29 11:14:39;;;;;;;0.00;0.00;;;17.90;92.90;;;;;;5028729;28;20189;-66
2022/09/29 11:17:30;;;;;;;0.00;0.00;;;17.90;93.00;;;;;;5032617;28;20235;-66
2022/09/29 11:20:01;;;;;;;0.00;0.00;;;18.00;92.60;;;;;;5032599;28;20178;-66
2022/09/29 11:22:32;;;;;;;0.00;0.00;;;18.10;92.40;;;;;;5032384;28;20182;-66
2022/09/29 11:25:29;;;;;;;0.00;0.00;;;18.00;92.70;;;;;;5032352;28;20796;-66
2022/09/29 11:28:22;;;;;;;0.95;0.20;;;18.00;92.40;;;;;;5032362;28;20186;-66
2022/09/29 11:31:25;;;;;;;0.00;0.00;;;17.90;92.10;;;;;;5032301;28;20181;-66
2022/09/29 11:34:06;;;;;;;0.00;0.00;;;17.90;92.70;;;;;;5032031;28;20267;-66
2022/09/29 11:36:52;;;;;;;0.00;0.00;;;17.90;92.60;;;;;;5032105;28;20178;-66
2022/09/29 11:39:53;;;;;;;0.00;0.00;;;17.90;92.40;;;;;;5032180;28;20213;-66
2022/09/29 11:42:29;;;;;;;0.00;0.00;;;17.90;92.40;;;;;;5008256;28;20605;-66
2022/09/29 11:45:00;;;;;;;0.00;0.00;;;17.80;92.70;;;;;;5012660;28;20527;-66
2022/09/29 11:47:44;;;;;;;0.30;0.20;;;17.90;92.80;;;;;;5012232;28;20222;-66
2022/09/29 11:50:25;;;;;;;0.00;0.00;;;18.00;92.20;;;;;;5012080;28;20179;-65
2022/09/29 11:53:07;;;;;;;0.00;0.00;;;18.10;92.00;;;;;;5012059;28;20214;-66
2022/09/29 11:55:48;;;;;;;0.03;0.03;;;18.10;92.40;;;;;;5012304;28;20187;-66
2022/09/29 11:58:23;;;;;;;0.00;0.00;;;18.20;91.30;;;;;;5012116;28;20185;-66
2022/09/29 12:01:19;;;;;;;0.00;0.00;;;18.20;91.10;;;;;;5012215;28;20178;-66
2022/09/29 12:04:18;;;;;;;0.00;0.00;;;18.20;91.10;;;;;;5012017;28;20226;-66
2022/09/29 12:06:56;;;;;;;0.00;0.00;;;18.20;91.70;;;;;;5012349;28;20183;-66
2022/09/29 12:09:43;;;;;;;0.00;0.00;;;18.00;91.70;;;;;;5011988;28;20642;-66
2022/09/29 12:12:21;;;;;;;0.00;0.00;;;18.00;91.70;;;;;;5011835;28;20344;-66
2022/09/29 12:15:06;;;;;;;0.00;0.00;;;18.00;92.20;;;;;;5016252;28;20190;-66
2022/09/29 12:17:36;;;;;;;0.08;0.08;;;17.90;90.50;;;;;;5015917;28;20584;-66
2022/09/29 12:20:16;;;;;;;0.00;0.00;;;17.80;91.00;;;;;;5016047;28;20182;-66
2022/09/29 12:22:44;;;;;;;0.00;0.00;;;17.60;91.10;;;;;;5015946;28;20186;-66
2022/09/29 12:25:18;;;;;;;0.00;0.00;;;17.60;91.80;;;;;;5015744;28;20183;-66
2022/09/29 12:27:47;;;;;;;0.03;0.03;;;17.50;91.90;;;;;;5015956;28;20546;-66
2022/09/29 12:30:29;;;;;;;0.00;0.00;;;17.40;91.10;;;;;;5015914;28;20253;-66
2022/09/29 12:33:15;;;;;;;0.55;0.32;;;17.20;92.00;;;;;;5015627;28;20218;-66
2022/09/29 12:39:43;;;;;;;0.17;0.17;;;16.90;92.70;;;;;;5013425;28;20249;-65
2022/09/29 12:42:37;;;;;;;0.00;0.00;;;17.20;91.60;;;;;;5032980;28;20174;-66
2022/09/29 12:45:32;;;;;;;0.65;0.20;;;17.40;91.10;;;;;;5015600;28;20182;-66
2022/09/29 12:48:25;;;;;;;0.00;0.00;;;17.60;91.40;;;;;;5015432;28;20236;-66
2022/09/29 12:51:00;;;;;;;0.08;0.08;;;17.50;90.20;;;;;;5015375;28;20187;-66
2022/09/29 12:54:04;;;;;;;0.00;0.00;;;17.50;90.90;;;;;;5015310;28;20222;-66
2022/09/29 12:56:45;;;;;;;0.00;0.00;;;17.60;91.10;;;;;;5014987;28;20265;-66
2022/09/29 12:59:18;;;;;;;0.00;0.00;;;17.60;91.10;;;;;;5015093;28;20178;-66
2022/09/29 13:01:46;;;;;;;0.00;0.00;;;17.70;90.90;;;;;;5015208;28;20209;-66
2022/09/29 13:04:18;;;;;;;0.00;0.00;;;17.90;90.00;;;;;;5014741;28;20234;-66
2022/09/29 13:07:13;;;;;;;0.00;0.00;;;18.10;89.40;;;;;;5015208;28;20230;-66
2022/09/29 13:10:12;;;;;;;0.00;0.00;;;18.20;90.00;;;;;;5015125;28;20179;-66
2022/09/29 13:13:09;;;;;;;0.00;0.00;;;18.20;87.70;;;;;;5014808;28;20260;-66
2022/09/29 13:15:41;;;;;;;0.00;0.00;;;18.20;88.90;;;;;;5015121;28;20183;-66
2022/09/29 13:18:24;;;;;;;0.00;0.00;;;18.10;89.70;;;;;;5014971;28;20510;-66
2022/09/29 13:21:01;;;;;;;0.00;0.00;;;18.10;90.10;;;;;;5014795;28;20183;-66
2022/09/29 13:23:50;;;;;;;0.00;0.00;;;18.00;89.40;;;;;;5014450;28;20220;-66
2022/09/29 13:26:34;;;;;;;0.00;0.00;;;17.90;87.80;;;;;;5014818;28;20213;-66